sensor_id;sensor_type;location;lat;lon;timestamp;P1;durP1;ratioP1;P2;durP2;ratioP2
19923;SDS011;10124;53.068;18.224;2023-04-15T00:01:52;14.27;;;11.90;;
19923;SDS011;10124;53.068;18.224;2023-04-15T00:04:20;14.80;;;11.50;;
19923;SDS011;10124;53.068;18.224;2023-04-15T00:06:51;16.80;;;12.00;;
19923;SDS011;10124;53.068;18.224;2023-04-15T00:09:20;14.20;;;11.07;;
19923;SDS011;10124;53.068;18.224;2023-04-15T00:11:47;14.73;;;11.33;;
19923;SDS011;10124;53.068;18.224;2023-04-15T00:14:16;14.03;;;11.57;;
19923;SDS011;10124;53.068;18.224;2023-04-15T00:16:43;17.23;;;11.87;;
19923;SDS011;10124;53.068;18.224;2023-04-15T00:19:10;14.83;;;12.07;;
19923;SDS011;10124;53.068;18.224;2023-04-15T00:21:38;15.43;;;11.43;;
19923;SDS011;10124;53.068;18.224;2023-04-15T00:24:06;14.10;;;10.90;;
19923;SDS011;10124;53.068;18.224;2023-04-15T00:26:33;16.30;;;11.97;;
19923;SDS011;10124;53.068;18.224;2023-04-15T00:29:01;18.17;;;11.60;;
19923;SDS011;10124;53.068;18.224;2023-04-15T00:31:29;15.47;;;11.70;;
19923;SDS011;10124;53.068;18.224;2023-04-15T00:33:57;17.90;;;13.03;;
19923;SDS011;10124;53.068;18.224;2023-04-15T00:36:25;16.47;;;12.63;;
19923;SDS011;10124;53.068;18.224;2023-04-15T00:38:52;14.57;;;12.53;;
19923;SDS011;10124;53.068;18.224;2023-04-15T00:41:19;17.57;;;12.37;;
19923;SDS011;10124;53.068;18.224;2023-04-15T00:43:48;15.30;;;13.63;;
19923;SDS011;10124;53.068;18.224;2023-04-15T00:46:18;16.00;;;13.03;;
19923;SDS011;10124;53.068;18.224;2023-04-15T00:48:47;19.13;;;13.93;;
19923;SDS011;10124;53.068;18.224;2023-04-15T00:51:14;18.87;;;14.77;;
19923;SDS011;10124;53.068;18.224;2023-04-15T00:53:44;18.63;;;14.07;;
19923;SDS011;10124;53.068;18.224;2023-04-15T00:56:12;16.43;;;13.50;;
19923;SDS011;10124;53.068;18.224;2023-04-15T00:58:40;22.70;;;14.97;;
19923;SDS011;10124;53.068;18.224;2023-04-15T01:01:07;19.03;;;13.70;;
19923;SDS011;10124;53.068;18.224;2023-04-15T01:03:35;23.77;;;14.30;;
19923;SDS011;10124;53.068;18.224;2023-04-15T01:06:03;21.63;;;14.40;;
19923;SDS011;10124;53.068;18.224;2023-04-15T01:08:31;16.30;;;13.70;;
19923;SDS011;10124;53.068;18.224;2023-04-15T01:11:00;17.90;;;14.17;;
19923;SDS011;10124;53.068;18.224;2023-04-15T01:13:29;19.13;;;14.93;;
19923;SDS011;10124;53.068;18.224;2023-04-15T01:15:57;21.87;;;13.83;;
19923;SDS011;10124;53.068;18.224;2023-04-15T01:18:24;17.40;;;13.97;;
19923;SDS011;10124;53.068;18.224;2023-04-15T01:20:52;17.23;;;14.20;;
19923;SDS011;10124;53.068;18.224;2023-04-15T01:23:22;18.30;;;13.93;;
19923;SDS011;10124;53.068;18.224;2023-04-15T01:25:50;20.10;;;14.10;;
19923;SDS011;10124;53.068;18.224;2023-04-15T01:28:19;18.30;;;14.00;;
19923;SDS011;10124;53.068;18.224;2023-04-15T01:30:47;16.60;;;13.57;;
19923;SDS011;10124;53.068;18.224;2023-04-15T01:33:14;19.33;;;13.83;;
19923;SDS011;10124;53.068;18.224;2023-04-15T01:35:41;19.70;;;14.10;;
19923;SDS011;10124;53.068;18.224;2023-04-15T01:38:10;17.47;;;14.63;;
19923;SDS011;10124;53.068;18.224;2023-04-15T01:40:38;18.90;;;13.90;;
19923;SDS011;10124;53.068;18.224;2023-04-15T01:43:06;18.87;;;14.00;;
19923;SDS011;10124;53.068;18.224;2023-04-15T01:45:34;18.53;;;14.77;;
19923;SDS011;10124;53.068;18.224;2023-04-15T01:48:02;21.40;;;14.87;;
19923;SDS011;10124;53.068;18.224;2023-04-15T01:50:30;21.53;;;14.50;;
19923;SDS011;10124;53.068;18.224;2023-04-15T01:52:57;15.77;;;13.90;;
19923;SDS011;10124;53.068;18.224;2023-04-15T01:55:24;15.97;;;14.17;;
19923;SDS011;10124;53.068;18.224;2023-04-15T01:57:52;17.80;;;14.60;;
19923;SDS011;10124;53.068;18.224;2023-04-15T02:00:20;19.37;;;14.50;;
19923;SDS011;10124;53.068;18.224;2023-04-15T02:02:48;18.47;;;14.43;;
19923;SDS011;10124;53.068;18.224;2023-04-15T02:05:16;17.47;;;14.27;;
19923;SDS011;10124;53.068;18.224;2023-04-15T02:07:46;18.27;;;14.30;;
19923;SDS011;10124;53.068;18.224;2023-04-15T02:10:14;15.90;;;12.97;;
19923;SDS011;10124;53.068;18.224;2023-04-15T02:12:42;17.37;;;13.33;;
19923;SDS011;10124;53.068;18.224;2023-04-15T02:15:10;16.90;;;13.13;;
19923;SDS011;10124;53.068;18.224;2023-04-15T02:17:37;16.73;;;13.10;;
19923;SDS011;10124;53.068;18.224;2023-04-15T02:20:07;16.70;;;13.33;;
19923;SDS011;10124;53.068;18.224;2023-04-15T02:22:34;18.87;;;13.47;;
19923;SDS011;10124;53.068;18.224;2023-04-15T02:25:02;15.20;;;12.13;;
19923;SDS011;10124;53.068;18.224;2023-04-15T02:27:31;20.03;;;13.90;;
19923;SDS011;10124;53.068;18.224;2023-04-15T02:29:58;14.43;;;11.93;;
19923;SDS011;10124;53.068;18.224;2023-04-15T02:32:26;16.07;;;12.50;;
19923;SDS011;10124;53.068;18.224;2023-04-15T02:34:55;16.77;;;13.23;;
19923;SDS011;10124;53.068;18.224;2023-04-15T02:37:22;16.33;;;12.23;;
19923;SDS011;10124;53.068;18.224;2023-04-15T02:39:50;14.83;;;12.60;;
19923;SDS011;10124;53.068;18.224;2023-04-15T02:42:18;15.13;;;11.97;;
19923;SDS011;10124;53.068;18.224;2023-04-15T02:44:48;14.90;;;12.23;;
19923;SDS011;10124;53.068;18.224;2023-04-15T02:47:16;16.50;;;12.23;;
19923;SDS011;10124;53.068;18.224;2023-04-15T02:49:44;17.23;;;12.87;;
19923;SDS011;10124;53.068;18.224;2023-04-15T02:52:11;17.73;;;11.93;;
19923;SDS011;10124;53.068;18.224;2023-04-15T02:54:39;13.60;;;11.90;;
19923;SDS011;10124;53.068;18.224;2023-04-15T02:57:07;17.40;;;11.43;;
19923;SDS011;10124;53.068;18.224;2023-04-15T02:59:36;17.13;;;11.93;;
19923;SDS011;10124;53.068;18.224;2023-04-15T03:02:04;15.87;;;11.60;;
19923;SDS011;10124;53.068;18.224;2023-04-15T03:04:34;16.50;;;12.27;;
19923;SDS011;10124;53.068;18.224;2023-04-15T03:07:02;13.13;;;10.87;;
19923;SDS011;10124;53.068;18.224;2023-04-15T03:09:30;15.83;;;11.50;;
19923;SDS011;10124;53.068;18.224;2023-04-15T03:12:00;15.07;;;12.10;;
19923;SDS011;10124;53.068;18.224;2023-04-15T03:14:28;15.67;;;11.47;;
19923;SDS011;10124;53.068;18.224;2023-04-15T03:16:56;13.97;;;11.63;;
19923;SDS011;10124;53.068;18.224;2023-04-15T03:19:25;18.63;;;11.67;;
19923;SDS011;10124;53.068;18.224;2023-04-15T03:21:52;13.10;;;11.30;;
19923;SDS011;10124;53.068;18.224;2023-04-15T03:24:19;18.10;;;12.27;;
19923;SDS011;10124;53.068;18.224;2023-04-15T03:26:46;13.70;;;11.13;;
19923;SDS011;10124;53.068;18.224;2023-04-15T03:29:16;12.90;;;11.10;;
19923;SDS011;10124;53.068;18.224;2023-04-15T03:31:44;15.87;;;11.60;;
19923;SDS011;10124;53.068;18.224;2023-04-15T03:34:11;13.97;;;11.47;;
19923;SDS011;10124;53.068;18.224;2023-04-15T03:36:38;13.23;;;10.60;;
19923;SDS011;10124;53.068;18.224;2023-04-15T03:39:05;15.43;;;11.30;;
19923;SDS011;10124;53.068;18.224;2023-04-15T03:41:32;16.50;;;12.27;;
19923;SDS011;10124;53.068;18.224;2023-04-15T03:44:00;15.37;;;11.10;;
19923;SDS011;10124;53.068;18.224;2023-04-15T03:46:27;12.97;;;10.93;;
19923;SDS011;10124;53.068;18.224;2023-04-15T03:48:55;14.23;;;11.73;;
19923;SDS011;10124;53.068;18.224;2023-04-15T03:51:22;16.10;;;11.67;;
19923;SDS011;10124;53.068;18.224;2023-04-15T03:53:49;14.57;;;11.37;;
19923;SDS011;10124;53.068;18.224;2023-04-15T03:56:16;12.83;;;10.67;;
19923;SDS011;10124;53.068;18.224;2023-04-15T03:58:44;16.90;;;11.50;;
19923;SDS011;10124;53.068;18.224;2023-04-15T04:01:11;14.87;;;11.30;;
19923;SDS011;10124;53.068;18.224;2023-04-15T04:03:38;13.33;;;10.83;;
19923;SDS011;10124;53.068;18.224;2023-04-15T04:06:06;11.83;;;10.30;;
19923;SDS011;10124;53.068;18.224;2023-04-15T04:08:34;14.73;;;11.13;;
19923;SDS011;10124;53.068;18.224;2023-04-15T04:11:01;12.97;;;10.73;;
19923;SDS011;10124;53.068;18.224;2023-04-15T04:13:29;14.83;;;10.57;;
19923;SDS011;10124;53.068;18.224;2023-04-15T04:15:56;14.17;;;10.63;;
19923;SDS011;10124;53.068;18.224;2023-04-15T04:18:24;12.90;;;10.53;;
19923;SDS011;10124;53.068;18.224;2023-04-15T04:20:51;14.17;;;10.80;;
19923;SDS011;10124;53.068;18.224;2023-04-15T04:23:18;12.50;;;10.13;;
19923;SDS011;10124;53.068;18.224;2023-04-15T04:25:46;14.70;;;10.83;;
19923;SDS011;10124;53.068;18.224;2023-04-15T04:28:13;15.43;;;10.87;;
19923;SDS011;10124;53.068;18.224;2023-04-15T04:30:43;13.37;;;10.80;;
19923;SDS011;10124;53.068;18.224;2023-04-15T04:33:10;12.43;;;10.63;;
19923;SDS011;10124;53.068;18.224;2023-04-15T04:35:37;13.67;;;10.83;;
19923;SDS011;10124;53.068;18.224;2023-04-15T04:38:05;15.47;;;11.50;;
19923;SDS011;10124;53.068;18.224;2023-04-15T04:40:32;16.17;;;10.30;;
19923;SDS011;10124;53.068;18.224;2023-04-15T04:43:00;14.73;;;10.23;;
19923;SDS011;10124;53.068;18.224;2023-04-15T04:45:27;12.13;;;9.87;;
19923;SDS011;10124;53.068;18.224;2023-04-15T04:47:54;11.77;;;9.80;;
19923;SDS011;10124;53.068;18.224;2023-04-15T04:50:21;14.37;;;10.80;;
19923;SDS011;10124;53.068;18.224;2023-04-15T04:52:49;11.83;;;10.17;;
19923;SDS011;10124;53.068;18.224;2023-04-15T04:55:16;14.00;;;10.50;;
19923;SDS011;10124;53.068;18.224;2023-04-15T04:57:44;17.80;;;9.20;;
19923;SDS011;10124;53.068;18.224;2023-04-15T05:00:11;12.77;;;9.93;;
19923;SDS011;10124;53.068;18.224;2023-04-15T05:02:39;11.67;;;9.87;;
19923;SDS011;10124;53.068;18.224;2023-04-15T05:05:09;12.70;;;10.60;;
19923;SDS011;10124;53.068;18.224;2023-04-15T05:07:37;14.03;;;10.93;;
19923;SDS011;10124;53.068;18.224;2023-04-15T05:10:05;13.87;;;10.70;;
19923;SDS011;10124;53.068;18.224;2023-04-15T05:12:34;12.13;;;10.03;;
19923;SDS011;10124;53.068;18.224;2023-04-15T05:15:03;17.67;;;10.50;;
19923;SDS011;10124;53.068;18.224;2023-04-15T05:17:32;16.13;;;10.90;;
19923;SDS011;10124;53.068;18.224;2023-04-15T05:20:01;15.40;;;11.00;;
19923;SDS011;10124;53.068;18.224;2023-04-15T05:22:29;16.17;;;10.80;;
19923;SDS011;10124;53.068;18.224;2023-04-15T05:24:57;12.23;;;10.63;;
19923;SDS011;10124;53.068;18.224;2023-04-15T05:27:24;15.83;;;11.27;;
19923;SDS011;10124;53.068;18.224;2023-04-15T05:29:52;13.57;;;11.33;;
19923;SDS011;10124;53.068;18.224;2023-04-15T05:32:20;12.77;;;10.27;;
19923;SDS011;10124;53.068;18.224;2023-04-15T05:34:47;20.70;;;11.57;;
19923;SDS011;10124;53.068;18.224;2023-04-15T05:37:16;12.13;;;10.63;;
19923;SDS011;10124;53.068;18.224;2023-04-15T05:39:43;19.17;;;11.53;;
19923;SDS011;10124;53.068;18.224;2023-04-15T05:42:11;14.77;;;11.20;;
19923;SDS011;10124;53.068;18.224;2023-04-15T05:44:38;13.90;;;11.77;;
19923;SDS011;10124;53.068;18.224;2023-04-15T05:47:05;18.30;;;11.43;;
19923;SDS011;10124;53.068;18.224;2023-04-15T05:49:34;16.03;;;11.87;;
19923;SDS011;10124;53.068;18.224;2023-04-15T05:52:02;14.70;;;11.50;;
19923;SDS011;10124;53.068;18.224;2023-04-15T05:54:29;16.83;;;12.13;;
19923;SDS011;10124;53.068;18.224;2023-04-15T05:56:58;15.53;;;13.20;;
19923;SDS011;10124;53.068;18.224;2023-04-15T05:59:25;20.60;;;12.97;;
19923;SDS011;10124;53.068;18.224;2023-04-15T06:01:54;17.83;;;13.97;;
19923;SDS011;10124;53.068;18.224;2023-04-15T06:04:22;14.80;;;13.27;;
19923;SDS011;10124;53.068;18.224;2023-04-15T06:06:50;16.07;;;14.03;;
19923;SDS011;10124;53.068;18.224;2023-04-15T06:09:17;18.87;;;15.07;;
19923;SDS011;10124;53.068;18.224;2023-04-15T06:11:45;16.27;;;14.50;;
19923;SDS011;10124;53.068;18.224;2023-04-15T06:14:12;17.47;;;15.20;;
19923;SDS011;10124;53.068;18.224;2023-04-15T06:16:39;17.87;;;15.47;;
19923;SDS011;10124;53.068;18.224;2023-04-15T06:19:07;17.13;;;15.10;;
19923;SDS011;10124;53.068;18.224;2023-04-15T06:21:34;18.10;;;14.57;;
19923;SDS011;10124;53.068;18.224;2023-04-15T06:24:02;19.47;;;14.80;;
19923;SDS011;10124;53.068;18.224;2023-04-15T06:26:30;19.73;;;16.03;;
19923;SDS011;10124;53.068;18.224;2023-04-15T06:28:57;18.83;;;15.07;;
19923;SDS011;10124;53.068;18.224;2023-04-15T06:31:25;22.43;;;16.67;;
19923;SDS011;10124;53.068;18.224;2023-04-15T06:33:52;20.73;;;17.83;;
19923;SDS011;10124;53.068;18.224;2023-04-15T06:36:20;21.07;;;17.17;;
19923;SDS011;10124;53.068;18.224;2023-04-15T06:38:47;21.97;;;17.27;;
19923;SDS011;10124;53.068;18.224;2023-04-15T06:41:15;19.33;;;15.47;;
19923;SDS011;10124;53.068;18.224;2023-04-15T06:43:42;17.80;;;15.90;;
19923;SDS011;10124;53.068;18.224;2023-04-15T06:46:10;18.43;;;16.53;;
19923;SDS011;10124;53.068;18.224;2023-04-15T06:48:38;20.80;;;16.77;;
19923;SDS011;10124;53.068;18.224;2023-04-15T06:51:05;20.53;;;16.93;;
19923;SDS011;10124;53.068;18.224;2023-04-15T06:53:33;18.63;;;16.47;;
19923;SDS011;10124;53.068;18.224;2023-04-15T06:56:01;20.83;;;17.40;;
19923;SDS011;10124;53.068;18.224;2023-04-15T06:58:28;25.30;;;16.20;;
19923;SDS011;10124;53.068;18.224;2023-04-15T07:00:56;21.50;;;16.80;;
19923;SDS011;10124;53.068;18.224;2023-04-15T07:03:24;19.63;;;17.53;;
19923;SDS011;10124;53.068;18.224;2023-04-15T07:05:52;20.63;;;16.00;;
19923;SDS011;10124;53.068;18.224;2023-04-15T07:08:20;21.43;;;15.97;;
19923;SDS011;10124;53.068;18.224;2023-04-15T07:10:48;19.67;;;16.57;;
19923;SDS011;10124;53.068;18.224;2023-04-15T07:13:16;17.03;;;15.23;;
19923;SDS011;10124;53.068;18.224;2023-04-15T07:15:43;19.90;;;14.53;;
19923;SDS011;10124;53.068;18.224;2023-04-15T07:18:11;21.03;;;16.20;;
19923;SDS011;10124;53.068;18.224;2023-04-15T07:20:39;16.90;;;15.10;;
19923;SDS011;10124;53.068;18.224;2023-04-15T07:23:07;19.07;;;16.27;;
19923;SDS011;10124;53.068;18.224;2023-04-15T07:25:35;23.70;;;19.57;;
19923;SDS011;10124;53.068;18.224;2023-04-15T07:28:04;24.37;;;19.37;;
19923;SDS011;10124;53.068;18.224;2023-04-15T07:30:32;25.27;;;19.57;;
19923;SDS011;10124;53.068;18.224;2023-04-15T07:33:00;22.03;;;18.63;;
19923;SDS011;10124;53.068;18.224;2023-04-15T07:35:29;23.57;;;20.50;;
19923;SDS011;10124;53.068;18.224;2023-04-15T07:37:56;22.03;;;19.00;;
19923;SDS011;10124;53.068;18.224;2023-04-15T07:40:24;23.40;;;18.87;;
19923;SDS011;10124;53.068;18.224;2023-04-15T07:42:52;20.90;;;18.17;;
19923;SDS011;10124;53.068;18.224;2023-04-15T07:45:20;22.57;;;17.47;;
19923;SDS011;10124;53.068;18.224;2023-04-15T07:47:47;23.33;;;18.40;;
19923;SDS011;10124;53.068;18.224;2023-04-15T07:50:16;23.77;;;16.63;;
19923;SDS011;10124;53.068;18.224;2023-04-15T07:52:45;19.60;;;16.67;;
19923;SDS011;10124;53.068;18.224;2023-04-15T07:55:13;21.13;;;17.00;;
19923;SDS011;10124;53.068;18.224;2023-04-15T07:57:42;19.07;;;16.33;;
19923;SDS011;10124;53.068;18.224;2023-04-15T08:00:10;23.20;;;16.83;;
19923;SDS011;10124;53.068;18.224;2023-04-15T08:02:38;17.83;;;15.17;;
19923;SDS011;10124;53.068;18.224;2023-04-15T08:05:06;22.97;;;15.63;;
19923;SDS011;10124;53.068;18.224;2023-04-15T08:07:35;21.10;;;15.27;;
19923;SDS011;10124;53.068;18.224;2023-04-15T08:10:04;18.53;;;15.50;;
19923;SDS011;10124;53.068;18.224;2023-04-15T08:12:32;22.63;;;15.87;;
19923;SDS011;10124;53.068;18.224;2023-04-15T08:15:00;18.93;;;15.57;;
19923;SDS011;10124;53.068;18.224;2023-04-15T08:17:28;21.13;;;15.00;;
19923;SDS011;10124;53.068;18.224;2023-04-15T08:19:56;20.80;;;17.17;;
19923;SDS011;10124;53.068;18.224;2023-04-15T08:22:23;20.17;;;15.60;;
19923;SDS011;10124;53.068;18.224;2023-04-15T08:24:51;19.70;;;15.00;;
19923;SDS011;10124;53.068;18.224;2023-04-15T08:27:18;20.93;;;16.00;;
19923;SDS011;10124;53.068;18.224;2023-04-15T08:29:47;19.23;;;16.40;;
19923;SDS011;10124;53.068;18.224;2023-04-15T08:32:14;22.27;;;16.87;;
19923;SDS011;10124;53.068;18.224;2023-04-15T08:34:43;21.93;;;16.57;;
19923;SDS011;10124;53.068;18.224;2023-04-15T08:37:10;20.10;;;15.10;;
19923;SDS011;10124;53.068;18.224;2023-04-15T08:39:38;22.17;;;16.03;;
19923;SDS011;10124;53.068;18.224;2023-04-15T08:42:09;18.77;;;15.13;;
19923;SDS011;10124;53.068;18.224;2023-04-15T08:44:42;17.87;;;15.20;;
19923;SDS011;10124;53.068;18.224;2023-04-15T08:47:13;20.43;;;15.30;;
19923;SDS011;10124;53.068;18.224;2023-04-15T08:49:42;17.43;;;14.80;;
19923;SDS011;10124;53.068;18.224;2023-04-15T08:52:10;20.67;;;15.57;;
19923;SDS011;10124;53.068;18.224;2023-04-15T08:54:39;20.43;;;15.37;;
19923;SDS011;10124;53.068;18.224;2023-04-15T08:57:06;23.07;;;17.43;;
19923;SDS011;10124;53.068;18.224;2023-04-15T08:59:35;28.57;;;21.27;;
19923;SDS011;10124;53.068;18.224;2023-04-15T09:02:02;116.53;;;78.33;;
19923;SDS011;10124;53.068;18.224;2023-04-15T09:04:32;110.83;;;70.13;;
19923;SDS011;10124;53.068;18.224;2023-04-15T09:06:59;187.73;;;110.87;;
19923;SDS011;10124;53.068;18.224;2023-04-15T09:09:27;314.00;;;168.97;;
19923;SDS011;10124;53.068;18.224;2023-04-15T09:11:55;239.73;;;126.37;;
19923;SDS011;10124;53.068;18.224;2023-04-15T09:14:23;97.37;;;48.33;;
19923;SDS011;10124;53.068;18.224;2023-04-15T09:19:25;32.03;;;21.30;;
19923;SDS011;10124;53.068;18.224;2023-04-15T09:21:53;104.97;;;61.70;;
19923;SDS011;10124;53.068;18.224;2023-04-15T09:24:32;210.03;;;84.97;;
19923;SDS011;10124;53.068;18.224;2023-04-15T09:27:05;57.17;;;29.50;;
19923;SDS011;10124;53.068;18.224;2023-04-15T09:29:33;24.00;;;16.70;;
19923;SDS011;10124;53.068;18.224;2023-04-15T09:32:10;33.93;;;27.90;;
19923;SDS011;10124;53.068;18.224;2023-04-15T09:34:43;35.03;;;20.80;;
19923;SDS011;10124;53.068;18.224;2023-04-15T09:37:11;35.07;;;21.40;;
19923;SDS011;10124;53.068;18.224;2023-04-15T09:39:58;54.60;;;27.40;;
19923;SDS011;10124;53.068;18.224;2023-04-15T09:42:25;48.33;;;25.43;;
19923;SDS011;10124;53.068;18.224;2023-04-15T09:44:54;33.53;;;20.27;;
19923;SDS011;10124;53.068;18.224;2023-04-15T09:47:26;42.73;;;24.93;;
19923;SDS011;10124;53.068;18.224;2023-04-15T09:49:55;43.37;;;25.50;;
19923;SDS011;10124;53.068;18.224;2023-04-15T09:52:24;21.50;;;16.67;;
19923;SDS011;10124;53.068;18.224;2023-04-15T09:54:52;22.47;;;17.33;;
19923;SDS011;10124;53.068;18.224;2023-04-15T09:57:22;26.97;;;21.97;;
19923;SDS011;10124;53.068;18.224;2023-04-15T09:59:50;32.27;;;23.87;;
19923;SDS011;10124;53.068;18.224;2023-04-15T10:02:18;23.23;;;16.80;;
19923;SDS011;10124;53.068;18.224;2023-04-15T10:04:49;41.53;;;30.70;;
19923;SDS011;10124;53.068;18.224;2023-04-15T10:07:20;60.77;;;45.53;;
19923;SDS011;10124;53.068;18.224;2023-04-15T10:09:49;36.97;;;24.23;;
19923;SDS011;10124;53.068;18.224;2023-04-15T10:12:16;26.73;;;18.80;;
19923;SDS011;10124;53.068;18.224;2023-04-15T10:14:47;182.47;;;85.27;;
19923;SDS011;10124;53.068;18.224;2023-04-15T10:17:31;29.50;;;19.87;;
19923;SDS011;10124;53.068;18.224;2023-04-15T10:20:02;48.37;;;27.07;;
19923;SDS011;10124;53.068;18.224;2023-04-15T10:22:31;21.90;;;15.47;;
19923;SDS011;10124;53.068;18.224;2023-04-15T10:24:59;35.07;;;21.50;;
19923;SDS011;10124;53.068;18.224;2023-04-15T10:27:30;41.77;;;21.70;;
19923;SDS011;10124;53.068;18.224;2023-04-15T10:29:59;26.70;;;16.37;;
19923;SDS011;10124;53.068;18.224;2023-04-15T10:32:30;22.53;;;15.33;;
19923;SDS011;10124;53.068;18.224;2023-04-15T10:34:58;27.13;;;16.87;;
19923;SDS011;10124;53.068;18.224;2023-04-15T10:37:36;21.87;;;15.20;;
19923;SDS011;10124;53.068;18.224;2023-04-15T10:42:54;30.93;;;18.37;;
19923;SDS011;10124;53.068;18.224;2023-04-15T10:45:24;18.30;;;13.80;;
19923;SDS011;10124;53.068;18.224;2023-04-15T10:47:54;20.40;;;14.33;;
19923;SDS011;10124;53.068;18.224;2023-04-15T10:50:24;19.23;;;14.03;;
19923;SDS011;10124;53.068;18.224;2023-04-15T10:52:52;20.73;;;15.17;;
19923;SDS011;10124;53.068;18.224;2023-04-15T10:55:21;20.00;;;13.63;;
19923;SDS011;10124;53.068;18.224;2023-04-15T10:57:50;24.90;;;17.20;;
19923;SDS011;10124;53.068;18.224;2023-04-15T11:00:21;119.83;;;66.17;;
19923;SDS011;10124;53.068;18.224;2023-04-15T11:02:53;213.43;;;102.43;;
19923;SDS011;10124;53.068;18.224;2023-04-15T11:05:22;132.57;;;62.43;;
19923;SDS011;10124;53.068;18.224;2023-04-15T11:12:03;55.03;;;34.90;;
19923;SDS011;10124;53.068;18.224;2023-04-15T11:14:33;34.27;;;19.63;;
19923;SDS011;10124;53.068;18.224;2023-04-15T11:17:05;250.53;;;162.90;;
19923;SDS011;10124;53.068;18.224;2023-04-15T11:19:36;78.60;;;41.97;;
19923;SDS011;10124;53.068;18.224;2023-04-15T11:22:10;354.87;;;138.90;;
19923;SDS011;10124;53.068;18.224;2023-04-15T11:24:47;225.03;;;90.87;;
19923;SDS011;10124;53.068;18.224;2023-04-15T11:27:21;145.77;;;56.23;;
19923;SDS011;10124;53.068;18.224;2023-04-15T11:29:49;157.07;;;62.67;;
19923;SDS011;10124;53.068;18.224;2023-04-15T11:32:17;205.20;;;81.03;;
19923;SDS011;10124;53.068;18.224;2023-04-15T11:34:45;111.63;;;49.90;;
19923;SDS011;10124;53.068;18.224;2023-04-15T11:37:14;150.43;;;62.13;;
19923;SDS011;10124;53.068;18.224;2023-04-15T11:39:41;112.63;;;47.23;;
19923;SDS011;10124;53.068;18.224;2023-04-15T11:42:16;364.17;;;132.93;;
19923;SDS011;10124;53.068;18.224;2023-04-15T11:44:44;371.57;;;142.73;;
19923;SDS011;10124;53.068;18.224;2023-04-15T11:47:21;317.97;;;122.33;;
19923;SDS011;10124;53.068;18.224;2023-04-15T11:49:49;392.00;;;156.17;;
19923;SDS011;10124;53.068;18.224;2023-04-15T11:52:17;24.77;;;15.70;;
19923;SDS011;10124;53.068;18.224;2023-04-15T11:54:45;181.23;;;59.80;;
19923;SDS011;10124;53.068;18.224;2023-04-15T11:57:13;88.60;;;34.83;;
19923;SDS011;10124;53.068;18.224;2023-04-15T11:59:43;107.27;;;39.93;;
19923;SDS011;10124;53.068;18.224;2023-04-15T12:02:13;52.20;;;20.87;;
19923;SDS011;10124;53.068;18.224;2023-04-15T12:04:41;42.77;;;22.07;;
19923;SDS011;10124;53.068;18.224;2023-04-15T12:07:09;421.27;;;171.43;;
19923;SDS011;10124;53.068;18.224;2023-04-15T12:09:37;228.37;;;93.90;;
19923;SDS011;10124;53.068;18.224;2023-04-15T12:12:06;81.43;;;36.90;;
19923;SDS011;10124;53.068;18.224;2023-04-15T12:14:34;227.97;;;84.97;;
19923;SDS011;10124;53.068;18.224;2023-04-15T12:17:03;84.43;;;42.10;;
19923;SDS011;10124;53.068;18.224;2023-04-15T12:19:36;21.03;;;14.67;;
19923;SDS011;10124;53.068;18.224;2023-04-15T12:22:15;96.13;;;44.13;;
19923;SDS011;10124;53.068;18.224;2023-04-15T12:24:43;45.63;;;27.17;;
19923;SDS011;10124;53.068;18.224;2023-04-15T12:27:15;80.30;;;39.87;;
19923;SDS011;10124;53.068;18.224;2023-04-15T12:29:43;374.53;;;140.17;;
19923;SDS011;10124;53.068;18.224;2023-04-15T12:32:14;70.13;;;33.27;;
19923;SDS011;10124;53.068;18.224;2023-04-15T12:34:43;58.47;;;32.93;;
19923;SDS011;10124;53.068;18.224;2023-04-15T12:37:18;141.87;;;57.77;;
19923;SDS011;10124;53.068;18.224;2023-04-15T12:39:47;47.67;;;24.00;;
19923;SDS011;10124;53.068;18.224;2023-04-15T12:42:16;87.30;;;33.77;;
19923;SDS011;10124;53.068;18.224;2023-04-15T12:44:45;21.50;;;15.83;;
19923;SDS011;10124;53.068;18.224;2023-04-15T12:47:13;22.23;;;17.83;;
19923;SDS011;10124;53.068;18.224;2023-04-15T12:49:41;19.80;;;13.63;;
19923;SDS011;10124;53.068;18.224;2023-04-15T12:52:09;67.37;;;30.20;;
19923;SDS011;10124;53.068;18.224;2023-04-15T12:54:37;37.53;;;21.83;;
19923;SDS011;10124;53.068;18.224;2023-04-15T12:57:05;86.53;;;44.37;;
19923;SDS011;10124;53.068;18.224;2023-04-15T12:59:34;38.87;;;22.33;;
19923;SDS011;10124;53.068;18.224;2023-04-15T13:02:03;117.83;;;59.30;;
19923;SDS011;10124;53.068;18.224;2023-04-15T13:04:31;48.13;;;29.70;;
19923;SDS011;10124;53.068;18.224;2023-04-15T13:07:00;41.77;;;24.57;;
19923;SDS011;10124;53.068;18.224;2023-04-15T13:09:27;30.57;;;18.63;;
19923;SDS011;10124;53.068;18.224;2023-04-15T13:11:56;33.47;;;19.93;;
19923;SDS011;10124;53.068;18.224;2023-04-15T13:14:24;33.13;;;20.17;;
19923;SDS011;10124;53.068;18.224;2023-04-15T13:16:53;19.50;;;14.00;;
19923;SDS011;10124;53.068;18.224;2023-04-15T13:19:21;20.20;;;13.03;;
19923;SDS011;10124;53.068;18.224;2023-04-15T13:21:49;25.30;;;19.43;;
19923;SDS011;10124;53.068;18.224;2023-04-15T13:24:17;19.17;;;12.93;;
19923;SDS011;10124;53.068;18.224;2023-04-15T13:26:45;28.60;;;15.43;;
19923;SDS011;10124;53.068;18.224;2023-04-15T13:29:16;179.37;;;87.17;;
19923;SDS011;10124;53.068;18.224;2023-04-15T13:31:44;76.27;;;44.70;;
19923;SDS011;10124;53.068;18.224;2023-04-15T13:34:11;15.80;;;11.70;;
19923;SDS011;10124;53.068;18.224;2023-04-15T13:36:39;90.43;;;51.23;;
19923;SDS011;10124;53.068;18.224;2023-04-15T13:39:07;44.47;;;29.77;;
19923;SDS011;10124;53.068;18.224;2023-04-15T13:41:35;101.53;;;65.60;;
19923;SDS011;10124;53.068;18.224;2023-04-15T13:44:03;39.70;;;29.00;;
19923;SDS011;10124;53.068;18.224;2023-04-15T13:46:32;41.13;;;31.17;;
19923;SDS011;10124;53.068;18.224;2023-04-15T13:48:59;43.30;;;29.77;;
19923;SDS011;10124;53.068;18.224;2023-04-15T13:51:27;54.90;;;36.67;;
19923;SDS011;10124;53.068;18.224;2023-04-15T13:53:54;21.50;;;15.87;;
19923;SDS011;10124;53.068;18.224;2023-04-15T13:56:24;29.80;;;23.40;;
19923;SDS011;10124;53.068;18.224;2023-04-15T13:58:51;47.83;;;34.60;;
19923;SDS011;10124;53.068;18.224;2023-04-15T14:01:20;35.97;;;25.83;;
19923;SDS011;10124;53.068;18.224;2023-04-15T14:03:48;19.07;;;14.93;;
19923;SDS011;10124;53.068;18.224;2023-04-15T14:06:16;13.93;;;10.70;;
19923;SDS011;10124;53.068;18.224;2023-04-15T14:08:43;33.20;;;16.90;;
19923;SDS011;10124;53.068;18.224;2023-04-15T14:11:11;33.00;;;16.03;;
19923;SDS011;10124;53.068;18.224;2023-04-15T14:13:38;27.77;;;18.40;;
19923;SDS011;10124;53.068;18.224;2023-04-15T14:16:05;14.17;;;11.33;;
19923;SDS011;10124;53.068;18.224;2023-04-15T14:18:33;19.37;;;13.80;;
19923;SDS011;10124;53.068;18.224;2023-04-15T14:21:01;24.87;;;18.83;;
19923;SDS011;10124;53.068;18.224;2023-04-15T14:23:29;60.90;;;39.87;;
19923;SDS011;10124;53.068;18.224;2023-04-15T14:25:57;24.43;;;16.43;;